Aérodrome :
LOGIN :

S'inscrire | Disclaimer

   EN    FR    IT 

 










Légende :    VFR   VFR Marginal   IFR   IFR Intensif   IFR Très Intensif
Visi : 
Plafond : 
>= 8 km
>= 3000ft
5 à 8 km
1000 à 3000 ft
1500m à 5 km
500 à 1000 ft
800 à 1500m
200 à 500 ft
< 800m
< 200 ft
Symboles :   Orages  Brouillard  Fortes neiges  Fortes précipitations  Vent > 20 kt
SIGMETs :   Divers  Orages  Givrage  Turbulence  Onde Orograph.  Cendres Volcan.







- Altitude de l'aérodrome : 788 ft
- Code IATA : DCM
- Voir les cartes d'approche


LFCK - Castres-Mazamet

DERNIER METAR :
  • 251400Z AUTO 12017KT CAVOK 18/09 Q1007 TEMPO 32020G35KT 2000 TSRA SCT030CB

METARs EXPIRÉS :
  • 251330Z AUTO 11016KT 080V140 9999 FEW048 BKN110 BKN160 19/10 Q1007 TEMPO 32020G35KT 2000 TSRA SCT030CB
  • 251300Z AUTO 10015KT 070V130 CAVOK 18/09 Q1008 TEMPO 4000 SHRA BKN012 SCT025TCU
  • 251230Z AUTO 13015KT CAVOK 18/09 Q1008 TEMPO 4000 SHRA BKN012 SCT025TCU
  • 251200Z AUTO 12017KT 080V150 9999 NSC 19/09 Q1008 NOSIG
  • 251130Z AUTO 12018KT 9999 FEW049 SCT110 19/09 Q1008 NOSIG

TAF TAF LFCK
Valide du 25 à 12h jusqu'au 25 à 21h UTC


251100Z 2512/2521 12012KT CAVOK
TEMPO 2514/2517 4000 SHRA BKN012 SCT025TCU
PROB40
TEMPO 2515/2518 32020G35KT 2000 TSRA SCT030CB
TEMPO 2517/2521 32010KT 4000 RA BKN010
Pas de NOTAMs connus pour ce terrain.



MET'MAP, la Météo Aéronautique d'un coup d'oeil ! - Copyright ORBIFLY Décembre 2007 - Disclaimer

ORBIFLY MET'MAP TEAM :

Programmation & Développement : Alexandra Zaïnal
Conception & Développement : Baudouin d'Aumeries
Co-Programmation & Développement : Marc-Olivier Méhu
Soutien technique & logistique : Manuel Goepfert

Contact : metmap@orbifly.com




SOURCES & CREDITS :

   NOAA